createdAt,value
2019-03-20T00:01:19.962Z,88.10
2019-03-20T00:03:49.046Z,88.18
2019-03-20T00:06:18.126Z,87.58
2019-03-20T00:08:47.217Z,87.89
2019-03-20T00:11:16.302Z,87.71
2019-03-20T00:13:45.390Z,87.68
2019-03-20T00:16:14.609Z,87.78
2019-03-20T00:18:43.703Z,88.03
2019-03-20T00:21:12.796Z,88.29
2019-03-20T00:23:41.888Z,88.85
2019-03-20T00:26:10.962Z,88.80
2019-03-20T00:28:40.950Z,89.12
2019-03-20T00:31:10.023Z,89.38
2019-03-20T00:33:39.116Z,88.54
2019-03-20T00:36:08.193Z,88.32
2019-03-20T00:38:37.278Z,88.39
2019-03-20T00:41:06.341Z,88.41
2019-03-20T00:43:35.426Z,88.34
2019-03-20T00:46:04.494Z,87.79
2019-03-20T00:48:33.591Z,88.22
2019-03-20T00:51:02.661Z,88.19
2019-03-20T00:53:31.736Z,88.98
2019-03-20T00:56:00.827Z,89.09
2019-03-20T00:58:29.931Z,88.87
2019-03-20T01:00:59.023Z,89.24
2019-03-20T01:03:28.093Z,89.12
2019-03-20T01:05:57.192Z,89.96
2019-03-20T01:08:26.265Z,89.65
2019-03-20T01:10:55.354Z,89.81
2019-03-20T01:13:24.627Z,89.83
2019-03-20T01:15:53.720Z,89.41
2019-03-20T01:18:22.785Z,89.23
2019-03-20T01:20:51.890Z,90.10
2019-03-20T01:23:20.954Z,90.67
2019-03-20T01:25:50.058Z,90.46
2019-03-20T01:28:19.149Z,91.25
2019-03-20T01:30:48.238Z,91.16
2019-03-20T01:33:17.407Z,91.07
2019-03-20T01:35:46.492Z,91.30
2019-03-20T01:38:15.559Z,91.55
2019-03-20T01:40:44.671Z,91.40
2019-03-20T01:43:13.742Z,90.75
2019-03-20T01:45:42.920Z,90.77
2019-03-20T01:48:12.048Z,90.95
2019-03-20T01:50:41.125Z,90.75
2019-03-20T01:53:10.243Z,91.27
2019-03-20T01:55:39.321Z,91.21
2019-03-20T01:58:08.450Z,90.38
2019-03-20T02:00:37.714Z,90.69
2019-03-20T02:03:06.825Z,91.28
2019-03-20T02:05:36.707Z,91.93
2019-03-20T02:08:05.781Z,91.80
2019-03-20T02:10:34.848Z,92.06
2019-03-20T02:13:03.962Z,92.04
2019-03-20T02:15:39.007Z,92.03
2019-03-20T02:18:03.852Z,91.72
2019-03-20T02:20:32.921Z,91.71
2019-03-20T02:23:02.027Z,91.39
2019-03-20T02:25:32.400Z,91.47
2019-03-20T02:28:01.684Z,91.29
2019-03-20T02:30:30.749Z,91.35
2019-03-20T02:32:59.853Z,91.67
2019-03-20T02:35:28.929Z,91.40
2019-03-20T02:37:57.999Z,91.11
2019-03-20T02:40:27.098Z,91.37
2019-03-20T02:42:56.168Z,91.69
2019-03-20T02:45:25.273Z,92.27
2019-03-20T02:47:54.341Z,92.57
2019-03-20T02:50:23.435Z,92.31
2019-03-20T02:52:52.519Z,92.15
2019-03-20T02:55:21.645Z,92.24
2019-03-20T02:57:50.692Z,92.04
2019-03-20T03:00:19.829Z,92.34
2019-03-20T03:02:48.894Z,92.18
2019-03-20T03:05:18.620Z,92.28
2019-03-20T03:07:47.713Z,92.36
2019-03-20T03:10:16.930Z,92.89
2019-03-20T03:12:46.007Z,93.21
2019-03-20T03:15:15.218Z,93.10
2019-03-20T03:17:44.321Z,92.88
2019-03-20T03:20:13.422Z,93.03
2019-03-20T03:22:42.496Z,92.76
2019-03-20T03:25:11.585Z,92.57
2019-03-20T03:27:40.683Z,92.30
2019-03-20T03:30:09.973Z,92.49
2019-03-20T03:32:39.075Z,92.57
2019-03-20T03:35:08.781Z,92.76
2019-03-20T03:37:37.868Z,92.32
2019-03-20T03:40:07.671Z,92.67
2019-03-20T03:42:36.763Z,93.29
2019-03-20T03:45:06.679Z,93.44
2019-03-20T03:47:35.766Z,92.92
2019-03-20T03:50:05.157Z,93.31
2019-03-20T03:52:34.242Z,93.78
2019-03-20T03:55:03.417Z,93.49
2019-03-20T03:57:32.555Z,93.29
2019-03-20T04:00:01.650Z,93.77
2019-03-20T04:02:30.719Z,93.61
2019-03-20T04:04:59.799Z,93.05
2019-03-20T04:07:28.896Z,93.10
2019-03-20T04:09:57.965Z,93.07
2019-03-20T04:12:27.056Z,93.19
2019-03-20T04:14:56.120Z,93.06
2019-03-20T04:17:28.860Z,92.87
2019-03-20T04:19:57.912Z,93.02
2019-03-20T04:22:26.978Z,93.13
2019-03-20T04:24:56.067Z,93.37
2019-03-20T04:27:25.139Z,93.12
2019-03-20T04:29:54.234Z,93.30
2019-03-20T04:32:23.331Z,93.13
2019-03-20T04:34:52.424Z,93.33
2019-03-20T04:37:21.508Z,93.55
2019-03-20T04:39:50.597Z,93.40
2019-03-20T04:42:19.666Z,93.77
2019-03-20T04:44:48.757Z,94.12
2019-03-20T04:47:17.826Z,94.13
2019-03-20T04:49:46.931Z,93.99
2019-03-20T04:52:16.012Z,94.04
2019-03-20T04:54:45.111Z,94.07
2019-03-20T04:57:14.195Z,93.36
2019-03-20T04:59:43.311Z,93.08
2019-03-20T05:02:12.385Z,92.89
2019-03-20T05:04:41.493Z,92.90
2019-03-20T05:07:10.575Z,92.96
2019-03-20T05:09:39.667Z,93.04
2019-03-20T05:12:08.750Z,92.78
2019-03-20T05:14:37.864Z,92.88
2019-03-20T05:17:06.938Z,92.88
2019-03-20T05:19:36.026Z,92.52
2019-03-20T05:22:05.126Z,92.39
2019-03-20T05:24:34.212Z,93.15
2019-03-20T05:27:03.301Z,93.44
2019-03-20T05:29:32.367Z,93.49
2019-03-20T05:32:01.486Z,93.32
2019-03-20T05:34:30.528Z,93.00
2019-03-20T05:37:09.818Z,92.96
2019-03-20T05:39:30.458Z,93.26
2019-03-20T05:41:59.595Z,93.35
2019-03-20T05:44:28.692Z,93.12
2019-03-20T05:46:57.795Z,92.85
2019-03-20T05:49:26.863Z,92.50
2019-03-20T05:51:56.038Z,92.46
2019-03-20T05:54:25.122Z,92.12
2019-03-20T05:56:54.239Z,92.08
2019-03-20T05:59:23.344Z,92.11
2019-03-20T06:01:52.434Z,91.79
2019-03-20T06:04:21.519Z,91.50
2019-03-20T06:06:50.621Z,91.23
2019-03-20T06:09:19.693Z,90.42
2019-03-20T06:11:49.081Z,90.18
2019-03-20T06:14:18.164Z,90.25
2019-03-20T06:16:47.243Z,90.12
2019-03-20T06:19:16.326Z,89.73
2019-03-20T06:21:45.394Z,89.31
2019-03-20T06:24:14.483Z,89.34
2019-03-20T06:26:43.579Z,89.37
2019-03-20T06:29:12.681Z,89.22
2019-03-20T06:31:41.759Z,88.65
2019-03-20T06:34:10.862Z,88.50
2019-03-20T06:36:39.946Z,87.79
2019-03-20T06:39:09.195Z,87.44
2019-03-20T06:41:38.288Z,86.44
2019-03-20T06:44:07.374Z,81.89
2019-03-20T06:46:36.452Z,72.01
2019-03-20T06:49:07.827Z,62.50
2019-03-20T06:51:36.321Z,53.65
2019-03-20T06:54:05.426Z,48.28
2019-03-20T06:56:34.506Z,43.71
2019-03-20T06:59:40.439Z,44.21
2019-03-20T07:02:09.201Z,41.37
2019-03-20T07:04:59.623Z,40.02
2019-03-20T07:07:43.430Z,36.49
2019-03-20T07:10:46.426Z,35.02
2019-03-20T07:13:15.494Z,34.97
2019-03-20T07:15:44.587Z,34.17
2019-03-20T07:18:13.663Z,32.31
2019-03-20T07:20:42.763Z,33.47
2019-03-20T07:23:11.839Z,32.21
2019-03-20T07:25:40.933Z,30.61
2019-03-20T07:28:10.013Z,30.51
2019-03-20T07:30:39.108Z,29.65
2019-03-20T07:33:08.190Z,28.61
2019-03-20T07:35:37.279Z,27.38
2019-03-20T07:38:06.368Z,25.37
2019-03-20T07:40:35.465Z,26.10
2019-03-20T07:43:09.099Z,23.79
2019-03-20T07:45:35.376Z,21.16
2019-03-20T07:48:04.467Z,23.43
2019-03-20T07:50:33.574Z,24.22
2019-03-20T07:53:02.637Z,22.73
2019-03-20T07:55:31.727Z,21.50
2019-03-20T07:58:00.807Z,21.76
2019-03-20T08:00:29.941Z,20.70
2019-03-20T08:02:59.033Z,23.68
2019-03-20T08:05:29.555Z,22.20
2019-03-20T08:08:06.741Z,23.63
2019-03-20T08:10:29.598Z,23.09
2019-03-20T08:12:58.723Z,21.43
2019-03-20T08:15:27.791Z,21.26
2019-03-20T08:17:56.894Z,21.66
2019-03-20T08:20:26.042Z,21.96
2019-03-20T08:22:55.126Z,22.66
2019-03-20T08:25:24.199Z,25.37
2019-03-20T08:27:53.312Z,25.39
2019-03-20T08:30:22.392Z,23.80
2019-03-20T08:32:51.486Z,24.01
2019-03-20T08:35:20.556Z,23.03
2019-03-20T08:37:49.666Z,21.61
2019-03-20T08:40:18.843Z,24.18
2019-03-20T08:42:47.937Z,25.00
2019-03-20T08:45:17.041Z,23.73
2019-03-20T08:47:46.159Z,20.78
2019-03-20T08:50:16.930Z,21.34
2019-03-20T08:52:46.147Z,20.90
2019-03-20T08:55:15.308Z,18.84
2019-03-20T08:57:44.515Z,22.43
2019-03-20T09:00:16.037Z,21.27
2019-03-20T09:02:45.270Z,23.05
2019-03-20T09:05:14.470Z,19.66
2019-03-20T09:07:47.499Z,22.39
2019-03-20T09:10:18.738Z,19.57
2019-03-20T09:12:47.872Z,20.38
2019-03-20T09:15:17.077Z,18.99
2019-03-20T09:17:46.182Z,19.87
2019-03-20T09:20:15.670Z,23.13
2019-03-20T09:22:44.771Z,23.13
2019-03-20T09:25:15.429Z,22.24
2019-03-20T09:27:44.528Z,19.50
2019-03-20T09:30:18.753Z,20.76
2019-03-20T09:32:47.822Z,19.78
2019-03-20T09:35:17.058Z,19.15
2019-03-20T09:37:51.848Z,19.50
2019-03-20T09:40:17.475Z,18.36
2019-03-20T09:42:46.554Z,17.66
2019-03-20T09:45:16.186Z,16.50
2019-03-20T09:47:45.315Z,16.52
2019-03-20T09:50:15.900Z,18.14
2019-03-20T09:52:44.970Z,20.85
2019-03-20T09:55:14.469Z,17.48
2019-03-20T09:57:43.560Z,16.05
2019-03-20T10:00:17.971Z,15.79
2019-03-20T10:02:47.050Z,17.77
2019-03-20T10:05:16.150Z,17.54
2019-03-20T10:07:45.221Z,18.48
2019-03-20T10:10:16.709Z,15.69
2019-03-20T10:12:45.778Z,17.25
2019-03-20T10:15:15.523Z,16.12
2019-03-20T10:17:44.622Z,17.07
2019-03-20T10:20:15.690Z,16.73
2019-03-20T10:22:44.833Z,18.75
2019-03-20T10:25:14.450Z,17.88
2019-03-20T10:27:43.579Z,19.57
2019-03-20T10:30:15.644Z,17.79
2019-03-20T10:32:44.716Z,16.74
2019-03-20T10:35:14.110Z,15.11
2019-03-20T10:37:43.201Z,14.98
2019-03-20T10:40:14.375Z,15.48
2019-03-20T10:42:43.454Z,17.29
2019-03-20T10:45:13.053Z,15.81
2019-03-20T10:47:42.091Z,16.12
2019-03-20T10:50:13.418Z,14.35
2019-03-20T10:52:42.514Z,15.27
2019-03-20T10:55:11.730Z,18.27
2019-03-20T10:57:40.790Z,17.92
2019-03-20T11:00:13.554Z,15.68
2019-03-20T11:02:42.619Z,17.45
2019-03-20T11:05:11.718Z,14.38
2019-03-20T11:07:40.802Z,15.43
2019-03-20T11:10:10.654Z,15.01
2019-03-20T11:12:39.745Z,13.32
2019-03-20T11:15:10.702Z,14.53
2019-03-20T11:17:39.789Z,14.38
2019-03-20T11:20:09.715Z,15.02
2019-03-20T11:22:38.789Z,14.20
2019-03-20T11:25:09.103Z,14.39
2019-03-20T11:27:38.182Z,14.05
2019-03-20T11:30:27.499Z,14.97
2019-03-20T11:32:56.583Z,15.95
2019-03-20T11:35:25.683Z,14.96
2019-03-20T11:37:54.782Z,15.93
2019-03-20T11:40:25.563Z,16.18
2019-03-20T11:42:54.666Z,15.17
2019-03-20T11:45:23.873Z,17.10
2019-03-20T11:47:52.968Z,16.87
2019-03-20T11:50:24.422Z,15.44
2019-03-20T11:52:53.538Z,16.45
2019-03-20T11:55:22.611Z,17.16
2019-03-20T11:57:51.709Z,15.97
2019-03-20T12:00:20.846Z,18.52
2019-03-20T12:02:49.954Z,17.47
2019-03-20T12:05:19.023Z,18.19
2019-03-20T12:07:48.130Z,18.69
2019-03-20T12:10:18.966Z,19.17
2019-03-20T12:12:48.064Z,19.66
2019-03-20T12:15:17.141Z,20.42
2019-03-20T12:17:46.235Z,19.14
2019-03-20T12:20:16.719Z,17.24
2019-03-20T12:22:45.951Z,15.27
2019-03-20T12:25:17.603Z,16.57
2019-03-20T12:27:46.723Z,16.23
2019-03-20T12:30:17.923Z,15.69
2019-03-20T12:32:47.031Z,18.08
2019-03-20T12:35:16.407Z,17.58
2019-03-20T12:37:45.529Z,18.10
2019-03-20T12:40:17.763Z,18.82
2019-03-20T12:42:46.865Z,20.25
2019-03-20T12:45:16.788Z,18.17
2019-03-20T12:47:45.882Z,16.79
2019-03-20T12:50:14.958Z,18.31
2019-03-20T12:52:44.058Z,18.43
2019-03-20T12:55:13.450Z,18.92
2019-03-20T12:57:42.554Z,18.55
2019-03-20T13:00:16.414Z,18.48
2019-03-20T13:02:45.532Z,18.70
2019-03-20T13:05:14.928Z,19.23
2019-03-20T13:07:44.127Z,18.37
2019-03-20T13:10:15.064Z,17.74
2019-03-20T13:12:44.139Z,19.37
2019-03-20T13:15:20.669Z,19.69
2019-03-20T13:17:49.748Z,18.59
2019-03-20T13:20:18.805Z,18.53
2019-03-20T13:22:53.839Z,16.78
2019-03-20T13:25:22.937Z,19.42
2019-03-20T13:27:52.009Z,17.45
2019-03-20T13:30:35.752Z,18.94
2019-03-20T13:33:04.879Z,17.98
2019-03-20T13:35:34.005Z,17.60
2019-03-20T13:38:03.072Z,16.55
2019-03-20T13:40:32.170Z,17.43
2019-03-20T13:43:01.254Z,16.26
2019-03-20T13:45:30.385Z,16.78
2019-03-20T13:47:59.458Z,17.60
2019-03-20T13:50:28.549Z,17.68
2019-03-20T13:52:57.635Z,17.13
2019-03-20T13:55:26.725Z,19.50
2019-03-20T13:57:55.807Z,18.94
2019-03-20T14:00:24.941Z,18.25
2019-03-20T14:02:54.018Z,18.64
2019-03-20T14:05:23.117Z,21.11
2019-03-20T14:07:52.209Z,19.67
2019-03-20T14:10:25.419Z,18.01
2019-03-20T14:12:52.246Z,18.28
2019-03-20T14:15:21.464Z,18.68
2019-03-20T14:17:50.549Z,17.97
2019-03-20T14:20:23.792Z,17.54
2019-03-20T14:22:52.846Z,18.98
2019-03-20T14:25:22.070Z,20.84
2019-03-20T14:27:51.273Z,19.60
2019-03-20T14:30:22.143Z,18.55
2019-03-20T14:32:51.218Z,19.27
2019-03-20T14:35:20.315Z,18.16
2019-03-20T14:37:49.391Z,18.05
2019-03-20T14:40:20.336Z,20.16
2019-03-20T14:42:49.466Z,19.86
2019-03-20T14:45:18.577Z,21.79
2019-03-20T14:47:47.655Z,22.81
2019-03-20T14:50:18.341Z,25.62
2019-03-20T14:52:47.434Z,23.38
2019-03-20T14:55:16.546Z,22.14
2019-03-20T14:57:45.656Z,20.56
2019-03-20T15:00:19.737Z,19.50
2019-03-20T15:02:48.843Z,20.66
2019-03-20T15:05:17.915Z,19.53
2019-03-20T15:07:47.022Z,20.41
2019-03-20T15:10:17.400Z,20.31
2019-03-20T15:12:46.588Z,22.57
2019-03-20T15:15:27.784Z,21.14
2019-03-20T15:17:56.886Z,20.16
2019-03-20T15:20:25.965Z,21.62
2019-03-20T15:22:55.064Z,21.35
2019-03-20T15:25:24.154Z,21.67
2019-03-20T15:27:53.257Z,21.69
2019-03-20T15:30:22.349Z,22.46
2019-03-20T15:32:51.444Z,22.02
2019-03-20T15:35:20.536Z,22.30
2019-03-20T15:37:49.622Z,23.24
2019-03-20T15:40:18.761Z,22.92
2019-03-20T15:42:47.883Z,22.52
2019-03-20T15:45:16.971Z,22.97
2019-03-20T15:47:46.294Z,22.38
2019-03-20T15:50:16.307Z,24.02
2019-03-20T15:52:45.419Z,24.74
2019-03-20T15:55:17.014Z,24.10
2019-03-20T15:57:46.090Z,25.67
2019-03-20T16:00:17.005Z,25.05
2019-03-20T16:02:46.386Z,26.49
2019-03-20T16:05:15.493Z,26.20
2019-03-20T16:07:44.590Z,27.50
2019-03-20T16:10:18.396Z,27.58
2019-03-20T16:12:47.477Z,28.12
2019-03-20T16:15:17.946Z,29.12
2019-03-20T16:17:47.144Z,29.53
2019-03-20T16:20:16.659Z,30.70
2019-03-20T16:22:45.733Z,31.26
2019-03-20T16:25:15.124Z,31.79
2019-03-20T16:27:44.407Z,32.91
2019-03-20T16:30:16.236Z,33.33
2019-03-20T16:32:45.309Z,33.79
2019-03-20T16:35:14.400Z,35.35
2019-03-20T16:37:43.477Z,33.98
2019-03-20T16:40:17.666Z,34.68
2019-03-20T16:42:46.777Z,35.78
2019-03-20T16:45:19.106Z,35.95
2019-03-20T16:47:48.195Z,36.89
2019-03-20T16:50:17.644Z,36.31
2019-03-20T16:52:46.843Z,37.28
2019-03-20T16:55:16.261Z,38.33
2019-03-20T16:57:45.486Z,39.40
2019-03-20T17:00:17.466Z,39.78
2019-03-20T17:02:46.568Z,40.53
2019-03-20T17:05:15.655Z,40.45
2019-03-20T17:07:44.754Z,41.78
2019-03-20T17:10:16.574Z,42.15
2019-03-20T17:12:45.689Z,44.38
2019-03-20T17:15:20.258Z,46.28
2019-03-20T17:17:49.370Z,45.66
2019-03-20T17:20:18.462Z,46.34
2019-03-20T17:22:47.568Z,47.22
2019-03-20T17:25:16.645Z,48.78
2019-03-20T17:27:45.747Z,49.62
2019-03-20T17:30:34.525Z,50.71
2019-03-20T17:33:03.654Z,51.15
2019-03-20T17:35:32.731Z,51.90
2019-03-20T17:38:01.826Z,52.90
2019-03-20T17:40:30.894Z,54.09
2019-03-20T17:42:59.987Z,55.56
2019-03-20T17:45:29.435Z,56.73
2019-03-20T17:47:58.524Z,58.15
2019-03-20T17:50:28.301Z,60.57
2019-03-20T17:52:57.386Z,60.35
2019-03-20T17:55:26.682Z,60.51
2019-03-20T17:57:55.874Z,61.65
2019-03-20T18:00:40.010Z,62.12
2019-03-20T18:03:09.211Z,62.23
2019-03-20T18:05:38.310Z,62.61
2019-03-20T18:08:07.426Z,64.39
2019-03-20T18:10:36.526Z,65.23
2019-03-20T18:13:06.351Z,66.05
2019-03-20T18:15:35.527Z,66.46
2019-03-20T18:18:04.872Z,66.80
2019-03-20T18:20:33.968Z,66.94
2019-03-20T18:23:03.072Z,66.60
2019-03-20T18:25:32.170Z,68.63
2019-03-20T18:28:01.257Z,70.76
2019-03-20T18:30:32.915Z,70.49
2019-03-20T18:33:02.217Z,70.26
2019-03-20T18:35:31.418Z,70.03
2019-03-20T18:38:01.212Z,69.39
2019-03-20T18:40:30.298Z,69.82
2019-03-20T18:42:59.379Z,70.57
2019-03-20T18:45:28.573Z,70.76
2019-03-20T18:47:57.646Z,70.85
2019-03-20T18:50:26.741Z,70.15
2019-03-20T18:52:55.800Z,70.12
2019-03-20T18:55:24.883Z,70.15
2019-03-20T18:57:53.975Z,71.40
2019-03-20T19:00:24.528Z,71.85
2019-03-20T19:02:54.528Z,72.37
2019-03-20T19:05:32.758Z,71.17
2019-03-20T19:08:03.117Z,71.78
2019-03-20T19:10:32.256Z,71.69
2019-03-20T19:13:01.378Z,71.78
2019-03-20T19:15:30.449Z,71.66
2019-03-20T19:17:59.552Z,72.24
2019-03-20T19:20:28.640Z,73.14
2019-03-20T19:22:57.778Z,73.41
2019-03-20T19:25:26.824Z,74.66
2019-03-20T19:27:55.912Z,75.22
2019-03-20T19:30:25.003Z,74.95
2019-03-20T19:32:54.090Z,74.74
2019-03-20T19:35:23.168Z,74.22
2019-03-20T19:37:52.331Z,75.04
2019-03-20T19:40:21.410Z,75.93
2019-03-20T19:42:50.697Z,75.18
2019-03-20T19:45:19.866Z,75.02
2019-03-20T19:47:48.934Z,75.43
2019-03-20T19:50:18.164Z,76.44
2019-03-20T19:52:47.258Z,76.53
2019-03-20T19:55:16.330Z,76.55
2019-03-20T19:57:45.423Z,76.59
2019-03-20T20:00:15.334Z,76.79
2019-03-20T20:02:44.412Z,76.12
2019-03-20T20:05:16.025Z,76.21
2019-03-20T20:07:44.517Z,76.91
2019-03-20T20:10:13.732Z,77.29
2019-03-20T20:12:42.798Z,77.41
2019-03-20T20:15:14.401Z,78.27
2019-03-20T20:17:43.478Z,78.50
2019-03-20T20:20:14.239Z,78.51
2019-03-20T20:22:43.314Z,78.05
2019-03-20T20:25:13.620Z,77.68
2019-03-20T20:27:42.684Z,78.36
2019-03-20T20:30:13.890Z,78.86
2019-03-20T20:32:42.978Z,78.77
2019-03-20T20:35:12.689Z,78.69
2019-03-20T20:37:41.800Z,78.62
2019-03-20T20:40:12.720Z,77.89
2019-03-20T20:42:43.199Z,77.93
2019-03-20T20:45:13.161Z,78.74
2019-03-20T20:47:42.239Z,78.95
2019-03-20T20:50:11.633Z,79.19
2019-03-20T20:52:40.727Z,79.07
2019-03-20T20:55:10.868Z,79.56
2019-03-20T20:57:39.959Z,79.05
2019-03-20T21:00:12.958Z,79.88
2019-03-20T21:02:42.049Z,79.91
2019-03-20T21:05:12.596Z,79.54
2019-03-20T21:07:41.682Z,79.58
2019-03-20T21:10:11.817Z,79.72
2019-03-20T21:12:42.687Z,79.83
2019-03-20T21:15:37.625Z,80.10
2019-03-20T21:18:34.393Z,79.35
2019-03-20T21:21:04.089Z,79.01
2019-03-20T21:23:58.918Z,79.52
2019-03-20T21:26:28.560Z,79.70
2019-03-20T21:29:53.449Z,80.13
2019-03-20T21:32:32.663Z,80.22
2019-03-20T21:35:41.274Z,80.23
2019-03-20T21:38:12.754Z,81.03
2019-03-20T21:41:07.016Z,81.71
2019-03-20T21:44:15.569Z,81.46
2019-03-20T21:47:19.902Z,80.83
2019-03-20T21:49:49.680Z,80.65
2019-03-20T21:52:19.304Z,80.86
2019-03-20T21:55:28.290Z,80.25
2019-03-20T21:58:21.984Z,80.34
2019-03-20T22:01:37.177Z,80.59
2019-03-20T22:04:06.771Z,80.98
2019-03-20T22:07:21.522Z,81.32
2019-03-20T22:10:33.047Z,81.07
2019-03-20T22:13:26.438Z,81.11
2019-03-20T22:16:51.238Z,80.90
2019-03-20T22:19:49.228Z,80.66
2019-03-20T22:22:47.914Z,80.86
2019-03-20T22:25:52.860Z,81.66
2019-03-20T22:28:53.028Z,81.97
2019-03-20T22:31:22.665Z,81.69
2019-03-20T22:34:44.498Z,81.83
2019-03-20T22:37:14.494Z,81.53
2019-03-20T22:40:35.662Z,81.13
2019-03-20T22:43:30.598Z,81.16
2019-03-20T22:46:55.829Z,81.63
2019-03-20T22:49:58.083Z,82.15
2019-03-20T22:53:26.052Z,81.69
2019-03-20T22:56:33.691Z,81.61
2019-03-20T22:59:03.310Z,82.39
2019-03-20T23:01:54.854Z,82.90
2019-03-20T23:04:36.414Z,83.43
2019-03-20T23:07:06.064Z,83.06
2019-03-20T23:09:35.685Z,83.10
2019-03-20T23:12:08.290Z,82.42
2019-03-20T23:14:37.912Z,82.53
2019-03-20T23:17:07.512Z,83.33
2019-03-20T23:19:37.898Z,83.46
2019-03-20T23:22:07.554Z,83.16
2019-03-20T23:24:37.168Z,83.21
2019-03-20T23:27:09.479Z,82.86
2019-03-20T23:29:39.106Z,82.17
2019-03-20T23:32:08.707Z,82.67
2019-03-20T23:34:39.628Z,83.21
2019-03-20T23:37:09.248Z,83.64
2019-03-20T23:39:38.850Z,83.45
2019-03-20T23:42:09.098Z,83.60
2019-03-20T23:44:38.729Z,83.27
2019-03-20T23:47:08.370Z,83.02
2019-03-20T23:49:37.974Z,83.15
2019-03-20T23:52:07.593Z,83.84
2019-03-20T23:54:48.863Z,83.89
2019-03-20T23:57:19.061Z,83.09
2019-03-20T23:59:49.098Z,83.31
